Time;durP1;ratioP1;P1;durP2;ratioP2;P2;SDS_P1;SDS_P2;PMS_P1;PMS_P2;Temp;Humidity;BMP_temperature;BMP_pressure;BME280_temperature;BME280_humidity;BME280_pressure;Samples;Min_cycle;Max_cycle;Signal;HPM_P1;HPM_P2
2022/09/16 00:00:44;;;;;;;1.70;0.90;;;13.40;99.90;;;;;;5021541;28;20511;-50
2022/09/16 00:03:11;;;;;;;1.77;1.23;;;13.40;99.90;;;;;;5021785;28;20457;-50
2022/09/16 00:05:45;;;;;;;1.43;0.80;;;13.30;99.90;;;;;;5021416;28;20469;-51
2022/09/16 00:08:13;;;;;;;1.30;0.90;;;13.20;99.90;;;;;;5020646;28;20444;-52
2022/09/16 00:10:40;;;;;;;2.10;0.97;;;13.20;99.90;;;;;;5020338;28;20535;-46
2022/09/16 00:13:08;;;;;;;3.77;2.13;;;13.10;99.90;;;;;;5020360;28;20454;-54
2022/09/16 00:15:35;;;;;;;5.93;0.90;;;13.10;99.90;;;;;;5020156;28;20468;-52
2022/09/16 00:18:02;;;;;;;2.30;1.00;;;13.10;99.90;;;;;;5020626;28;20543;-52
2022/09/16 00:20:28;;;;;;;1.87;0.90;;;13.10;99.90;;;;;;5020228;28;20492;-49
2022/09/16 00:22:55;;;;;;;1.47;0.83;;;13.10;99.90;;;;;;5020992;28;20629;-49
2022/09/16 00:25:22;;;;;;;4.00;0.90;;;13.10;99.90;;;;;;5020663;28;20469;-54
2022/09/16 00:27:49;;;;;;;1.40;0.90;;;13.10;99.90;;;;;;5020006;28;20472;-52
2022/09/16 00:30:17;;;;;;;1.40;0.80;;;13.10;99.90;;;;;;5020183;28;20479;-54
2022/09/16 00:32:44;;;;;;;1.20;1.00;;;13.10;99.90;;;;;;5019923;28;20743;-47
2022/09/16 00:35:11;;;;;;;2.27;0.83;;;13.00;99.90;;;;;;5019131;28;20798;-51
2022/09/16 00:37:38;;;;;;;3.00;0.80;;;13.00;99.90;;;;;;5020492;28;20449;-53
2022/09/16 00:40:05;;;;;;;1.97;1.00;;;13.00;99.90;;;;;;5021954;28;20881;-52
2022/09/16 00:42:37;;;;;;;2.97;1.10;;;13.00;99.90;;;;;;5020979;28;20449;-52
2022/09/16 00:45:13;;;;;;;2.70;0.80;;;13.00;99.90;;;;;;5021728;28;20465;-54
2022/09/16 00:47:44;;;;;;;4.27;1.03;;;12.90;99.90;;;;;;5022082;28;20908;-52
2022/09/16 00:50:16;;;;;;;1.63;0.90;;;12.90;99.90;;;;;;5022265;28;20469;-48
2022/09/16 00:52:43;;;;;;;1.27;1.00;;;12.80;99.90;;;;;;5021130;28;20444;-50
2022/09/16 00:55:15;;;;;;;2.90;1.10;;;12.80;99.90;;;;;;5020348;28;20485;-51
2022/09/16 00:57:44;;;;;;;2.33;1.10;;;12.80;99.90;;;;;;5019909;28;20461;-52
2022/09/16 01:00:12;;;;;;;2.70;1.07;;;12.80;99.90;;;;;;5019365;28;20503;-53
2022/09/16 01:02:42;;;;;;;1.60;0.83;;;12.80;99.90;;;;;;5019354;28;20453;-52
2022/09/16 01:05:12;;;;;;;2.60;1.10;;;12.80;99.90;;;;;;5019893;28;20473;-46
2022/09/16 01:07:43;;;;;;;2.77;2.53;;;12.70;99.90;;;;;;5019561;28;20553;-48
2022/09/16 01:10:11;;;;;;;1.23;0.73;;;12.70;99.90;;;;;;5021382;28;20472;-57
2022/09/16 01:12:39;;;;;;;3.77;1.07;;;12.70;99.90;;;;;;5021043;28;20449;-54
2022/09/16 01:15:07;;;;;;;1.50;0.83;;;12.60;99.90;;;;;;5019252;28;20477;-53
2022/09/16 01:17:50;;;;;;;5.60;1.30;;;12.70;99.90;;;;;;5018818;28;20441;-51
2022/09/16 01:20:55;;;;;;;1.90;1.10;;;12.60;99.90;;;;;;5019247;28;20489;-51
2022/09/16 01:23:49;;;;;;;2.43;1.10;;;12.60;99.90;;;;;;5019226;28;20456;-54
2022/09/16 01:26:46;;;;;;;3.13;1.20;;;12.60;99.90;;;;;;5019100;28;20552;-54
2022/09/16 01:29:32;;;;;;;3.60;0.90;;;12.60;99.90;;;;;;5018987;28;20430;-53
2022/09/16 01:32:06;;;;;;;2.37;1.00;;;12.50;99.90;;;;;;5019031;28;20789;-50
2022/09/16 01:34:45;;;;;;;1.57;1.17;;;12.50;99.90;;;;;;5019132;28;20885;-47
2022/09/16 01:37:19;;;;;;;3.30;1.13;;;12.50;99.90;;;;;;5019343;28;20894;-48
2022/09/16 01:39:56;;;;;;;2.83;1.10;;;12.50;99.90;;;;;;5018893;28;20483;-50
2022/09/16 01:42:34;;;;;;;2.20;1.00;;;12.50;99.90;;;;;;5019431;28;20453;-51
2022/09/16 01:45:06;;;;;;;2.53;0.90;;;12.50;99.90;;;;;;5019023;28;20433;-48
2022/09/16 01:47:39;;;;;;;4.03;1.10;;;12.50;99.90;;;;;;5019205;28;20437;-50
2022/09/16 01:50:16;;;;;;;1.90;1.10;;;12.40;99.90;;;;;;5019318;28;20429;-51
2022/09/16 01:52:51;;;;;;;3.00;1.10;;;12.40;99.90;;;;;;5019186;28;20449;-52
2022/09/16 01:55:22;;;;;;;4.13;1.00;;;12.40;99.90;;;;;;5018561;28;20452;-49
2022/09/16 01:57:54;;;;;;;2.37;1.20;;;12.40;99.90;;;;;;5018564;28;20437;-49
2022/09/16 02:00:25;;;;;;;3.50;1.20;;;12.40;99.90;;;;;;5018811;28;20797;-55
2022/09/16 02:02:58;;;;;;;2.60;1.17;;;12.30;99.90;;;;;;5018966;28;20488;-49
2022/09/16 02:05:29;;;;;;;2.37;0.87;;;12.30;99.90;;;;;;5019491;28;20453;-55
2022/09/16 02:08:01;;;;;;;6.83;1.33;;;12.30;99.90;;;;;;5019384;28;20759;-49
2022/09/16 02:10:31;;;;;;;1.70;1.30;;;12.30;99.90;;;;;;5018026;28;20454;-53
2022/09/16 02:13:02;;;;;;;2.30;1.13;;;12.30;99.90;;;;;;5018137;28;20433;-54
2022/09/16 02:15:32;;;;;;;1.33;0.93;;;12.30;99.90;;;;;;5018494;28;20925;-54
2022/09/16 02:18:06;;;;;;;2.97;2.00;;;12.30;99.90;;;;;;5018300;28;20453;-49
2022/09/16 02:20:37;;;;;;;2.33;1.00;;;12.30;99.90;;;;;;5018278;28;20473;-51
2022/09/16 02:23:09;;;;;;;5.20;2.67;;;12.30;99.90;;;;;;5018546;28;20449;-52
2022/09/16 02:25:39;;;;;;;2.03;1.00;;;12.30;99.90;;;;;;5019372;28;20442;-56
2022/09/16 02:28:12;;;;;;;2.90;1.07;;;12.30;99.90;;;;;;5020131;28;20771;-55
2022/09/16 02:30:45;;;;;;;2.20;1.00;;;12.30;99.90;;;;;;5020527;28;20480;-49
2022/09/16 02:33:20;;;;;;;4.10;1.10;;;12.30;99.90;;;;;;5018658;28;20425;-53
2022/09/16 02:35:52;;;;;;;1.90;1.47;;;12.20;99.90;;;;;;5017989;28;20571;-50
2022/09/16 02:38:23;;;;;;;1.90;1.20;;;12.20;99.90;;;;;;5018080;28;20465;-49
2022/09/16 02:40:54;;;;;;;2.80;1.47;;;12.20;99.90;;;;;;5017736;28;20493;-49
2022/09/16 02:43:21;;;;;;;3.20;1.67;;;12.20;99.90;;;;;;5018414;28;20456;-54
2022/09/16 02:45:54;;;;;;;6.23;1.40;;;12.30;99.90;;;;;;5017955;28;20469;-47
2022/09/16 02:48:30;;;;;;;2.40;1.23;;;12.20;99.90;;;;;;5017998;28;21037;-49
2022/09/16 02:51:03;;;;;;;3.10;1.30;;;12.20;99.90;;;;;;5018088;28;20468;-49
2022/09/16 02:53:40;;;;;;;3.70;1.47;;;12.20;99.90;;;;;;5018316;28;20425;-49
2022/09/16 02:56:13;;;;;;;2.80;1.17;;;12.20;99.90;;;;;;5017786;28;20483;-53
2022/09/16 02:58:40;;;;;;;2.50;1.47;;;12.10;99.90;;;;;;5017837;28;20449;-51
2022/09/16 03:01:07;;;;;;;3.23;1.97;;;12.10;99.90;;;;;;5017650;28;20489;-50
2022/09/16 03:03:36;;;;;;;2.03;1.63;;;12.20;99.90;;;;;;5017834;28;20867;-48
2022/09/16 03:06:14;;;;;;;6.50;1.33;;;12.10;99.90;;;;;;5017757;28;20477;-47
2022/09/16 03:08:42;;;;;;;2.60;1.40;;;12.10;99.90;;;;;;5017837;28;20437;-52
2022/09/16 03:11:18;;;;;;;3.50;1.40;;;12.10;99.90;;;;;;5017783;28;20484;-51
2022/09/16 03:13:53;;;;;;;4.37;1.27;;;12.10;99.90;;;;;;5017689;28;20877;-48
2022/09/16 03:16:30;;;;;;;2.53;1.17;;;12.10;99.90;;;;;;5017405;28;20540;-53
2022/09/16 03:19:09;;;;;;;4.10;1.63;;;12.00;99.90;;;;;;5017530;28;20437;-54
2022/09/16 03:21:43;;;;;;;3.93;1.20;;;12.00;99.90;;;;;;5017202;28;20488;-51
2022/09/16 03:24:17;;;;;;;3.57;1.60;;;12.10;99.90;;;;;;5017676;28;20455;-51
2022/09/16 03:26:56;;;;;;;3.23;1.50;;;12.00;99.90;;;;;;5017622;28;20472;-50
2022/09/16 03:29:27;;;;;;;1.53;1.10;;;12.00;99.90;;;;;;5017934;28;20772;-52
2022/09/16 03:32:01;;;;;;;2.00;1.33;;;12.00;99.90;;;;;;5017545;28;20485;-53
2022/09/16 03:34:33;;;;;;;6.07;2.27;;;12.10;99.90;;;;;;5017273;28;20440;-48
2022/09/16 03:37:04;;;;;;;3.63;1.97;;;12.00;99.90;;;;;;5017427;28;20499;-50
2022/09/16 03:39:36;;;;;;;6.27;1.97;;;12.00;99.90;;;;;;5017414;28;20452;-51
2022/09/16 03:42:06;;;;;;;3.40;1.43;;;12.00;99.90;;;;;;5017026;28;20484;-52
2022/09/16 03:44:34;;;;;;;2.50;2.03;;;12.00;99.90;;;;;;5017663;28;20511;-54
2022/09/16 03:47:02;;;;;;;3.80;2.33;;;12.00;99.90;;;;;;5017158;28;20483;-51
2022/09/16 03:49:30;;;;;;;4.63;2.17;;;11.90;99.90;;;;;;5017365;28;20441;-52
2022/09/16 03:51:57;;;;;;;3.87;2.07;;;12.00;99.90;;;;;;5017331;28;20469;-54
2022/09/16 03:54:25;;;;;;;4.20;1.60;;;12.00;99.90;;;;;;5017761;28;20940;-49
2022/09/16 03:56:51;;;;;;;3.10;1.53;;;12.00;99.90;;;;;;5017772;28;20472;-52
2022/09/16 03:59:18;;;;;;;3.20;1.83;;;12.00;99.90;;;;;;5017917;28;20445;-49
2022/09/16 04:01:45;;;;;;;4.10;1.80;;;12.00;99.90;;;;;;5019310;28;20592;-48
2022/09/16 04:04:12;;;;;;;3.83;2.40;;;12.00;99.90;;;;;;5019751;28;20492;-51
2022/09/16 04:06:41;;;;;;;5.83;1.80;;;12.00;99.90;;;;;;5019528;28;20487;-49
2022/09/16 04:09:07;;;;;;;4.60;1.67;;;12.00;99.90;;;;;;5018008;28;20476;-54
2022/09/16 04:11:35;;;;;;;2.47;1.80;;;12.00;99.90;;;;;;5021066;28;20483;-54
2022/09/16 04:14:03;;;;;;;6.07;2.00;;;12.00;99.90;;;;;;5023258;28;20516;-52
2022/09/16 04:16:33;;;;;;;2.80;1.37;;;12.00;99.90;;;;;;5021683;28;20471;-48
2022/09/16 04:18:59;;;;;;;2.37;1.80;;;12.00;99.90;;;;;;5020814;28;20434;-52
2022/09/16 04:21:28;;;;;;;4.43;2.40;;;12.10;99.90;;;;;;5021151;28;20494;-53
2022/09/16 04:23:56;;;;;;;3.50;1.90;;;12.10;99.90;;;;;;5021311;28;20437;-51
2022/09/16 04:26:23;;;;;;;6.13;2.20;;;12.00;99.90;;;;;;5020635;28;20453;-51
2022/09/16 04:28:53;;;;;;;3.57;2.20;;;12.00;99.90;;;;;;5020790;28;20445;-47
2022/09/16 04:31:20;;;;;;;3.10;2.50;;;12.00;99.90;;;;;;5020441;28;20455;-51
2022/09/16 04:33:46;;;;;;;2.60;1.87;;;12.00;99.90;;;;;;5020652;28;20437;-51
2022/09/16 04:36:16;;;;;;;10.80;2.40;;;12.00;99.90;;;;;;5020538;28;20445;-52
2022/09/16 04:38:44;;;;;;;4.90;1.70;;;12.00;99.90;;;;;;5020333;28;20438;-52
2022/09/16 04:41:14;;;;;;;2.83;1.63;;;12.00;99.90;;;;;;5019895;28;20481;-51
2022/09/16 04:43:41;;;;;;;2.10;1.57;;;12.00;99.90;;;;;;5020401;28;20445;-48
2022/09/16 04:46:09;;;;;;;2.70;2.00;;;12.00;99.90;;;;;;5020505;28;20468;-50
2022/09/16 04:48:36;;;;;;;2.30;2.10;;;12.00;99.90;;;;;;5020306;28;20445;-50
2022/09/16 04:51:04;;;;;;;2.13;1.50;;;12.00;99.90;;;;;;5020090;28;20449;-52
2022/09/16 04:53:31;;;;;;;3.53;2.30;;;12.00;99.90;;;;;;5019898;28;20465;-54
2022/09/16 04:56:04;;;;;;;2.50;1.83;;;12.00;99.90;;;;;;5020109;28;20449;-55
2022/09/16 04:58:32;;;;;;;2.10;1.67;;;11.90;99.90;;;;;;5020465;28;20433;-54
2022/09/16 05:01:04;;;;;;;3.17;1.37;;;12.00;99.90;;;;;;5019466;28;20488;-49
2022/09/16 05:03:32;;;;;;;2.83;1.87;;;11.90;99.90;;;;;;5020164;28;20477;-54
2022/09/16 05:06:05;;;;;;;2.43;1.70;;;11.90;99.90;;;;;;5004101;28;20450;-50
2022/09/16 05:08:34;;;;;;;2.23;1.80;;;11.90;99.90;;;;;;5019680;28;20516;-49
2022/09/16 05:11:04;;;;;;;2.33;1.40;;;12.00;99.90;;;;;;5019787;28;20457;-49
2022/09/16 05:13:32;;;;;;;3.30;1.60;;;11.90;99.90;;;;;;5019111;28;20469;-52
2022/09/16 05:16:03;;;;;;;1.80;1.50;;;12.00;99.90;;;;;;5020083;28;20535;-55
2022/09/16 05:18:29;;;;;;;3.70;1.50;;;11.90;99.90;;;;;;5019959;28;20539;-57
2022/09/16 05:20:58;;;;;;;5.73;1.80;;;11.90;99.90;;;;;;5019000;28;20516;-54
2022/09/16 05:23:25;;;;;;;2.87;1.83;;;11.90;99.90;;;;;;5019213;28;21048;-49
2022/09/16 05:25:53;;;;;;;2.93;1.53;;;11.90;99.90;;;;;;5019287;28;20866;-49
2022/09/16 05:28:20;;;;;;;3.23;1.70;;;11.90;99.90;;;;;;5019392;28;20465;-49
2022/09/16 05:30:48;;;;;;;3.30;1.63;;;11.90;99.90;;;;;;5019134;28;20459;-48
2022/09/16 05:33:14;;;;;;;7.47;1.23;;;11.90;99.90;;;;;;5018959;28;20457;-48
2022/09/16 05:35:41;;;;;;;4.10;1.80;;;11.90;99.90;;;;;;5012309;28;20449;-48
2022/09/16 05:38:09;;;;;;;5.23;1.67;;;11.90;99.90;;;;;;5018920;28;20930;-54
2022/09/16 05:40:35;;;;;;;1.97;1.67;;;12.00;99.90;;;;;;5021266;28;20448;-55
2022/09/16 05:43:02;;;;;;;3.30;1.33;;;12.10;99.90;;;;;;5010279;28;20815;-55
2022/09/16 05:45:29;;;;;;;7.10;1.40;;;12.10;99.90;;;;;;5019729;28;20455;-46
2022/09/16 05:47:57;;;;;;;5.03;2.50;;;12.10;99.90;;;;;;5010063;28;20473;-53
2022/09/16 05:50:24;;;;;;;2.87;1.53;;;12.20;99.90;;;;;;5013861;28;20453;-54
2022/09/16 05:52:51;;;;;;;2.50;1.57;;;12.20;99.90;;;;;;5008202;28;20469;-50
2022/09/16 05:55:17;;;;;;;5.00;1.83;;;12.20;99.90;;;;;;5010768;28;20898;-50
2022/09/16 05:57:45;;;;;;;2.00;1.80;;;12.20;99.90;;;;;;5007467;28;20475;-55
2022/09/16 06:00:13;;;;;;;4.97;1.83;;;12.20;99.90;;;;;;5007011;28;20442;-48
2022/09/16 06:02:39;;;;;;;4.37;1.80;;;12.20;99.90;;;;;;4998488;28;20486;-55
2022/09/16 06:05:08;;;;;;;1.53;1.00;;;12.20;99.90;;;;;;5005223;28;20460;-53
2022/09/16 06:07:35;;;;;;;4.10;1.80;;;12.20;99.90;;;;;;5009007;28;20464;-53
2022/09/16 06:10:01;;;;;;;3.23;1.50;;;12.30;99.90;;;;;;5001241;28;20895;-55
2022/09/16 06:12:28;;;;;;;3.37;1.33;;;12.30;99.90;;;;;;5002579;28;20438;-53
2022/09/16 06:14:55;;;;;;;1.87;1.43;;;12.40;99.90;;;;;;5004515;28;20549;-53
2022/09/16 06:17:22;;;;;;;1.93;1.83;;;12.50;99.90;;;;;;5001486;28;20452;-49
2022/09/16 06:19:48;;;;;;;1.80;1.20;;;12.50;99.90;;;;;;5009844;28;20847;-49
2022/09/16 06:22:17;;;;;;;1.83;1.37;;;12.60;99.90;;;;;;5013124;28;20942;-52
2022/09/16 06:24:43;;;;;;;4.43;1.60;;;12.60;99.90;;;;;;5009779;28;20445;-50
2022/09/16 06:27:10;;;;;;;4.07;1.47;;;12.60;99.90;;;;;;5005681;28;20941;-46
2022/09/16 06:29:37;;;;;;;6.17;2.00;;;12.70;99.90;;;;;;5017378;28;20453;-52
2022/09/16 06:32:04;;;;;;;4.03;1.70;;;12.70;99.90;;;;;;5016071;28;20771;-52
2022/09/16 06:34:31;;;;;;;3.63;1.53;;;12.70;99.90;;;;;;4999117;28;20470;-50
2022/09/16 06:36:58;;;;;;;5.20;1.47;;;12.80;99.90;;;;;;5011204;28;20447;-50
2022/09/16 06:39:26;;;;;;;2.60;1.60;;;12.90;99.90;;;;;;5002742;28;20576;-48
2022/09/16 06:41:52;;;;;;;3.10;1.57;;;13.00;99.90;;;;;;5014005;28;20489;-51
2022/09/16 06:44:19;;;;;;;5.70;2.47;;;13.00;99.90;;;;;;5004613;28;20469;-54
2022/09/16 06:46:46;;;;;;;6.93;3.77;;;13.10;99.90;;;;;;5007766;28;20446;-49
2022/09/16 06:49:13;;;;;;;2.03;1.57;;;13.10;99.90;;;;;;5012449;28;20461;-49
2022/09/16 06:51:40;;;;;;;4.37;1.53;;;13.10;99.90;;;;;;5002095;28;20450;-51
2022/09/16 06:54:08;;;;;;;2.07;1.50;;;13.10;99.90;;;;;;5000905;28;20528;-56
2022/09/16 06:56:38;;;;;;;5.37;1.97;;;13.20;99.90;;;;;;5005185;28;20454;-54
2022/09/16 06:59:06;;;;;;;4.53;2.03;;;13.20;99.90;;;;;;4997620;28;20576;-51
2022/09/16 07:01:33;;;;;;;3.63;1.63;;;13.30;99.90;;;;;;5013675;28;20481;-52
2022/09/16 07:04:04;;;;;;;3.57;2.27;;;13.40;99.90;;;;;;5000439;28;20953;-44
2022/09/16 07:06:31;;;;;;;3.60;1.50;;;13.40;99.90;;;;;;4999926;28;20446;-46
2022/09/16 07:08:58;;;;;;;1.63;1.30;;;13.30;99.90;;;;;;5013877;28;20481;-54
2022/09/16 07:11:26;;;;;;;1.57;1.47;;;13.30;99.90;;;;;;5002730;28;20769;-51
2022/09/16 07:13:54;;;;;;;2.00;1.47;;;13.30;99.90;;;;;;5008915;28;20471;-53
2022/09/16 07:16:23;;;;;;;5.03;1.40;;;13.40;99.90;;;;;;5010237;28;20450;-54
2022/09/16 07:18:53;;;;;;;1.83;1.43;;;13.50;99.90;;;;;;5001151;28;20873;-51
2022/09/16 07:21:21;;;;;;;3.07;1.37;;;13.60;99.90;;;;;;5002120;28;20448;-48
2022/09/16 07:23:48;;;;;;;4.10;1.37;;;13.60;99.90;;;;;;5017101;28;20457;-49
2022/09/16 07:26:17;;;;;;;2.20;1.70;;;13.70;99.90;;;;;;5013506;28;20529;-50
2022/09/16 07:28:46;;;;;;;4.97;1.50;;;13.60;99.90;;;;;;5012180;28;20448;-47
2022/09/16 07:31:16;;;;;;;3.90;1.30;;;13.60;99.90;;;;;;5003826;28;20430;-54
2022/09/16 07:33:49;;;;;;;4.43;2.03;;;13.70;99.90;;;;;;5004350;28;20471;-50
2022/09/16 07:36:18;;;;;;;1.77;1.37;;;13.80;99.90;;;;;;5005746;28;20926;-54
2022/09/16 07:38:45;;;;;;;1.47;1.13;;;13.80;99.90;;;;;;5013801;28;20441;-53
2022/09/16 07:41:14;;;;;;;1.67;1.03;;;13.80;99.90;;;;;;5012296;28;20906;-50
2022/09/16 07:43:42;;;;;;;5.57;1.77;;;13.80;99.90;;;;;;5004205;28;20551;-54
2022/09/16 07:46:10;;;;;;;2.83;1.40;;;13.90;99.90;;;;;;5011725;28;20471;-48
2022/09/16 07:48:39;;;;;;;2.63;1.20;;;14.10;99.90;;;;;;5005213;28;20460;-53
2022/09/16 07:51:08;;;;;;;2.73;1.30;;;14.30;99.90;;;;;;5010868;28;20456;-51
2022/09/16 07:53:35;;;;;;;2.23;1.33;;;14.40;99.90;;;;;;5001114;28;20452;-50
2022/09/16 07:56:03;;;;;;;3.60;1.20;;;14.40;99.90;;;;;;5000939;28;20469;-54
2022/09/16 07:58:30;;;;;;;1.13;0.97;;;14.40;99.90;;;;;;5000783;28;20449;-48
2022/09/16 08:00:57;;;;;;;2.60;1.40;;;14.50;99.90;;;;;;5000280;28;21046;-48
2022/09/16 08:03:23;;;;;;;3.70;1.37;;;14.70;99.90;;;;;;4999394;28;20481;-53
2022/09/16 08:05:52;;;;;;;1.50;1.00;;;14.80;99.90;;;;;;5000441;28;20438;-51
2022/09/16 08:08:19;;;;;;;2.10;1.13;;;15.00;99.90;;;;;;5000504;28;20450;-53
2022/09/16 08:10:53;;;;;;;4.50;1.00;;;15.20;99.90;;;;;;4999913;28;20481;-53
2022/09/16 08:13:20;;;;;;;1.93;1.50;;;15.40;99.90;;;;;;4999777;28;20434;-49
2022/09/16 08:15:47;;;;;;;1.40;1.17;;;15.30;99.90;;;;;;5009200;28;20461;-50
2022/09/16 08:18:14;;;;;;;1.50;0.90;;;15.40;99.90;;;;;;5011062;28;20481;-45
2022/09/16 08:20:40;;;;;;;1.87;1.00;;;15.40;99.90;;;;;;5031856;28;20472;-50
2022/09/16 08:23:09;;;;;;;3.37;1.10;;;15.40;99.90;;;;;;5023942;28;20532;-50
2022/09/16 08:25:36;;;;;;;1.50;1.13;;;15.40;99.90;;;;;;5022482;28;20484;-49
2022/09/16 08:28:03;;;;;;;1.30;0.90;;;15.50;99.90;;;;;;5034829;28;20433;-48
2022/09/16 08:30:30;;;;;;;4.50;1.00;;;15.60;99.90;;;;;;5038630;28;20472;-51
2022/09/16 08:32:58;;;;;;;2.00;1.20;;;15.60;99.90;;;;;;5039870;28;20480;-47
2022/09/16 08:35:25;;;;;;;1.70;1.30;;;15.60;99.90;;;;;;5038361;28;20441;-52
2022/09/16 08:37:52;;;;;;;3.00;1.80;;;15.60;99.90;;;;;;5039718;28;20452;-48
2022/09/16 08:40:23;;;;;;;4.47;0.80;;;16.10;99.90;;;;;;5038972;28;20481;-53
2022/09/16 08:43:01;;;;;;;3.77;1.10;;;16.70;99.90;;;;;;5039411;28;20481;-51
2022/09/16 08:45:32;;;;;;;2.80;1.30;;;16.60;99.90;;;;;;5038973;28;20453;-46
2022/09/16 08:48:14;;;;;;;2.43;1.20;;;16.90;99.90;;;;;;5039156;28;20440;-51
2022/09/16 08:50:46;;;;;;;2.93;1.30;;;17.50;99.90;;;;;;5039271;28;20475;-49
2022/09/16 08:53:19;;;;;;;1.97;1.23;;;18.30;99.90;;;;;;5038554;28;20441;-43
2022/09/16 08:55:49;;;;;;;4.67;1.70;;;18.80;99.90;;;;;;5037814;28;20468;-48
2022/09/16 08:58:19;;;;;;;3.30;1.57;;;19.40;99.90;;;;;;5038411;28;20473;-47
2022/09/16 09:00:49;;;;;;;3.37;1.20;;;19.40;99.90;;;;;;5038985;28;20488;-50
2022/09/16 09:03:23;;;;;;;2.40;1.17;;;19.30;99.90;;;;;;5039006;28;20604;-48
2022/09/16 09:05:53;;;;;;;1.40;1.13;;;19.90;99.90;;;;;;5038814;28;20461;-51
2022/09/16 09:08:32;;;;;;;1.20;0.90;;;19.80;99.90;;;;;;5038671;28;20473;-55
2022/09/16 09:11:09;;;;;;;1.80;1.20;;;20.20;99.90;;;;;;5038729;28;20473;-47
2022/09/16 09:13:51;;;;;;;1.50;0.90;;;20.30;99.90;;;;;;5038682;28;20466;-46
2022/09/16 09:16:28;;;;;;;2.27;1.17;;;19.70;99.90;;;;;;5038777;28;20453;-43
2022/09/16 09:19:09;;;;;;;1.50;1.10;;;18.90;99.90;;;;;;5038831;28;20429;-51
2022/09/16 09:21:52;;;;;;;4.13;0.90;;;18.10;99.90;;;;;;5038582;28;20508;-51
2022/09/16 09:24:39;;;;;;;4.97;1.60;;;17.50;99.90;;;;;;5039657;28;20546;-48
2022/09/16 09:27:14;;;;;;;1.60;1.07;;;17.00;99.90;;;;;;5039105;28;20527;-51
2022/09/16 09:30:03;;;;;;;2.60;1.13;;;16.50;99.90;;;;;;5038489;28;20484;-56
2022/09/16 09:32:41;;;;;;;5.33;1.23;;;16.20;99.90;;;;;;5038270;28;20461;-41
2022/09/16 09:35:21;;;;;;;1.50;1.20;;;16.10;99.90;;;;;;5038591;28;20485;-44
2022/09/16 09:38:04;;;;;;;2.13;1.13;;;16.80;99.90;;;;;;5038598;28;20483;-45
2022/09/16 09:40:35;;;;;;;1.13;0.77;;;17.20;99.90;;;;;;5038539;28;20421;-49
2022/09/16 09:43:09;;;;;;;3.73;1.30;;;17.50;99.90;;;;;;5037781;28;20500;-46
2022/09/16 09:45:40;;;;;;;3.07;1.57;;;17.80;99.90;;;;;;5037672;28;20410;-50
2022/09/16 09:48:17;;;;;;;2.60;1.43;;;17.80;99.90;;;;;;5037170;28;20473;-47
2022/09/16 09:50:46;;;;;;;3.47;1.27;;;17.70;99.90;;;;;;5037134;28;20425;-50
2022/09/16 09:53:18;;;;;;;2.57;1.87;;;17.50;99.90;;;;;;5037246;28;20510;-52
2022/09/16 09:55:44;;;;;;;3.03;1.27;;;17.40;99.90;;;;;;5037667;28;20443;-50
2022/09/16 09:58:30;;;;;;;3.80;1.17;;;17.20;99.90;;;;;;5038446;28;20517;-43
2022/09/16 10:00:57;;;;;;;3.10;1.20;;;17.30;99.90;;;;;;5036544;28;20421;-43
2022/09/16 10:03:26;;;;;;;2.70;1.23;;;17.10;99.90;;;;;;5037079;28;20540;-46
2022/09/16 10:05:53;;;;;;;4.50;1.10;;;17.00;99.90;;;;;;5036832;28;20441;-48
2022/09/16 10:08:25;;;;;;;3.17;1.00;;;16.80;99.90;;;;;;5036949;28;20511;-47
2022/09/16 10:10:58;;;;;;;6.20;1.07;;;16.80;99.90;;;;;;5036720;28;20440;-52
2022/09/16 10:13:28;;;;;;;3.00;1.17;;;17.90;99.90;;;;;;5036796;28;20413;-40
2022/09/16 10:16:09;;;;;;;2.43;1.00;;;18.70;99.90;;;;;;5036982;28;20429;-45
2022/09/16 10:18:43;;;;;;;5.40;1.57;;;18.40;99.90;;;;;;5037058;28;20497;-41
2022/09/16 10:21:12;;;;;;;1.60;1.03;;;18.00;99.90;;;;;;5036626;28;20484;-50
2022/09/16 10:23:39;;;;;;;3.53;1.10;;;18.50;99.90;;;;;;5036523;28;20496;-44
2022/09/16 10:26:18;;;;;;;3.20;1.10;;;19.30;99.90;;;;;;5036015;28;20452;-39
2022/09/16 10:28:59;;;;;;;2.03;1.07;;;19.90;99.90;;;;;;5036612;28;20528;-45
2022/09/16 10:31:30;;;;;;;1.73;1.07;;;20.20;99.00;;;;;;5036143;28;20445;-43
2022/09/16 10:33:59;;;;;;;2.60;1.33;;;21.00;96.90;;;;;;5037011;28;20509;-44
2022/09/16 10:36:33;;;;;;;4.33;1.30;;;20.70;97.30;;;;;;5036744;28;20449;-43
2022/09/16 10:39:04;;;;;;;2.60;0.90;;;20.50;98.00;;;;;;5036748;28;20416;-40
2022/09/16 10:41:34;;;;;;;10.30;1.20;;;20.40;95.90;;;;;;5036391;28;20800;-50
2022/09/16 10:44:06;;;;;;;1.67;1.07;;;20.20;94.80;;;;;;5036624;28;20468;-40
2022/09/16 10:46:34;;;;;;;5.17;1.10;;;20.10;95.40;;;;;;5036580;28;20468;-48
2022/09/16 10:49:10;;;;;;;3.73;1.00;;;20.30;96.20;;;;;;5036727;28;20428;-45
2022/09/16 10:51:37;;;;;;;1.77;1.20;;;20.50;95.50;;;;;;5036258;28;20437;-48
2022/09/16 10:54:05;;;;;;;3.43;0.90;;;20.20;94.80;;;;;;5036227;28;20552;-51
2022/09/16 10:56:34;;;;;;;2.17;1.00;;;19.90;95.10;;;;;;5036565;28;20445;-46
2022/09/16 10:59:05;;;;;;;3.03;1.47;;;19.20;96.10;;;;;;5036420;28;20480;-44
2022/09/16 11:01:42;;;;;;;4.10;1.37;;;18.70;97.60;;;;;;5036265;28;20452;-43
2022/09/16 11:04:48;;;;;;;8.10;1.20;;;18.10;98.80;;;;;;5036269;28;20480;-46
2022/09/16 11:07:28;;;;;;;2.87;1.63;;;17.50;99.90;;;;;;4956606;29;20444;-47
2022/09/16 11:10:00;;;;;;;3.13;1.10;;;17.40;99.90;;;;;;5029225;28;20464;-41
2022/09/16 11:12:45;;;;;;;2.30;1.00;;;17.70;99.90;;;;;;5036456;28;20476;-46
2022/09/16 11:15:24;;;;;;;1.83;1.40;;;18.00;99.90;;;;;;5036078;28;20513;-46
2022/09/16 11:18:05;;;;;;;1.40;0.93;;;18.40;99.90;;;;;;5036288;28;20478;-47
2022/09/16 11:20:44;;;;;;;5.17;1.70;;;18.60;99.90;;;;;;5038340;28;20463;-44
2022/09/16 11:23:26;;;;;;;1.20;0.83;;;18.70;98.70;;;;;;5040120;28;20536;-47
2022/09/16 11:26:00;;;;;;;4.00;0.83;;;18.70;98.60;;;;;;5040151;28;20468;-45
2022/09/16 11:28:49;;;;;;;2.50;1.10;;;18.70;98.70;;;;;;5039947;28;20490;-47
2022/09/16 11:31:27;;;;;;;1.37;0.97;;;18.50;98.50;;;;;;5039856;28;20448;-40
2022/09/16 11:34:00;;;;;;;1.53;0.97;;;18.20;98.60;;;;;;5039759;28;20429;-45
2022/09/16 11:36:44;;;;;;;1.37;0.80;;;18.10;99.60;;;;;;5039789;28;20472;-41
2022/09/16 11:39:33;;;;;;;4.10;1.10;;;17.80;99.00;;;;;;5040052;28;20490;-44
2022/09/16 11:42:08;;;;;;;7.43;1.20;;;17.60;98.60;;;;;;5040164;28;20441;-42
2022/09/16 11:44:45;;;;;;;6.30;1.17;;;17.50;99.00;;;;;;5039682;28;20535;-43
2022/09/16 11:47:28;;;;;;;1.40;0.80;;;17.80;99.60;;;;;;5040214;28;20425;-45
2022/09/16 11:50:14;;;;;;;2.87;1.67;;;18.10;99.90;;;;;;5040277;28;20435;-47
2022/09/16 11:52:59;;;;;;;5.17;0.87;;;18.20;98.50;;;;;;5040287;28;20500;-48
2022/09/16 11:55:36;;;;;;;5.73;1.40;;;18.30;97.30;;;;;;5039598;28;20492;-46
2022/09/16 11:58:11;;;;;;;2.80;0.90;;;18.40;97.20;;;;;;5039629;28;20448;-42
2022/09/16 12:00:39;;;;;;;2.03;1.00;;;18.30;96.20;;;;;;5040020;28;20536;-46
2022/09/16 12:03:12;;;;;;;2.57;1.13;;;18.10;96.90;;;;;;5039700;28;20536;-38
2022/09/16 12:05:42;;;;;;;7.60;1.80;;;18.10;96.60;;;;;;5040122;28;20500;-46
2022/09/16 12:08:21;;;;;;;4.10;0.90;;;18.00;96.70;;;;;;5040408;28;20453;-50
2022/09/16 12:10:52;;;;;;;1.47;1.10;;;18.00;97.40;;;;;;5040810;28;20452;-63
2022/09/16 12:13:23;;;;;;;2.90;1.03;;;18.10;97.60;;;;;;5040759;28;20433;-57
2022/09/16 12:15:54;;;;;;;2.40;0.97;;;18.20;97.00;;;;;;5040515;28;20423;-50
2022/09/16 12:18:27;;;;;;;1.30;0.90;;;18.40;96.60;;;;;;5040593;28;20452;-52
2022/09/16 12:20:58;;;;;;;1.30;0.80;;;18.40;94.60;;;;;;5040469;28;20429;-43
2022/09/16 12:23:28;;;;;;;1.73;0.97;;;18.50;95.50;;;;;;5039590;28;20536;-44
2022/09/16 12:26:05;;;;;;;3.90;1.37;;;18.60;96.00;;;;;;5039990;28;20460;-51
2022/09/16 12:28:35;;;;;;;3.30;1.10;;;18.70;94.70;;;;;;5039935;28;20453;-41
2022/09/16 12:31:12;;;;;;;2.87;1.00;;;18.70;93.80;;;;;;5040385;28;20448;-43
2022/09/16 12:33:44;;;;;;;2.13;0.77;;;18.70;93.00;;;;;;5039908;28;20536;-39
2022/09/16 12:36:15;;;;;;;5.43;0.90;;;18.70;93.40;;;;;;5040211;28;20421;-56
2022/09/16 12:38:43;;;;;;;2.40;1.20;;;18.70;93.00;;;;;;5039935;28;20556;-47
2022/09/16 12:41:45;;;;;;;1.80;0.80;;;18.70;93.00;;;;;;5039775;28;20445;-47
2022/09/16 12:44:46;;;;;;;1.93;0.90;;;18.70;93.40;;;;;;5039073;28;20492;-42
2022/09/16 12:47:57;;;;;;;3.17;0.80;;;18.70;93.30;;;;;;5039146;28;20417;-43
2022/09/16 12:51:02;;;;;;;2.13;0.93;;;18.90;93.30;;;;;;5000804;28;20461;-45
2022/09/16 12:54:12;;;;;;;3.67;1.00;;;18.90;91.90;;;;;;5038908;28;20473;-47
2022/09/16 12:56:53;;;;;;;1.67;0.97;;;18.90;92.30;;;;;;5038951;28;20425;-48
2022/09/16 12:59:49;;;;;;;4.43;1.00;;;18.50;92.50;;;;;;5039102;28;20437;-51
2022/09/16 13:02:18;;;;;;;4.50;0.90;;;18.30;93.20;;;;;;5038531;28;20457;-47
2022/09/16 13:04:51;;;;;;;2.20;1.00;;;18.10;93.50;;;;;;5038339;28;20549;-42
2022/09/16 13:07:26;;;;;;;4.00;0.90;;;18.10;94.00;;;;;;5037999;28;20533;-45
2022/09/16 13:10:02;;;;;;;8.50;1.80;;;18.10;94.00;;;;;;5038341;28;20429;-45
2022/09/16 13:12:30;;;;;;;5.47;1.43;;;18.10;93.90;;;;;;5037973;28;20472;-47